Terminal Aerodrome Forecast
Issued by NWS Tulsa, OK

Home | Current Version | Previous Version | Text Only | Print | Product List | Glossary On
Versions: 1 2 3 4 5 6 7 8 9 10 11 12
000
FTUS44 KTSA 011100
TAFFSM
TAF
KFSM 011126Z 0112/0212 09005KT P6SM SKC
     FM011700 14010KT P6SM SCT050 SCT250
     FM020000 08005KT P6SM SCT100 SCT250
     FM020900 08005KT P6SM SCT015 SCT100 SCT250=

USA.gov is the U.S. government's official web portal to all federal, state and local government web resources and services.